createdAt,value
2019-05-03T00:02:28.771Z,9.06
2019-05-03T00:05:03.092Z,9.07
2019-05-03T00:07:32.346Z,9.07
2019-05-03T00:10:02.869Z,9.06
2019-05-03T00:12:32.809Z,9.06
2019-05-03T00:15:03.707Z,9.05
2019-05-03T00:17:32.870Z,9.05
2019-05-03T00:20:02.378Z,9.05
2019-05-03T00:22:32.335Z,9.02
2019-05-03T00:25:05.933Z,9.03
2019-05-03T00:27:32.542Z,9.01
2019-05-03T00:30:02.816Z,9.00
2019-05-03T00:32:32.197Z,9.00
2019-05-03T00:35:02.989Z,8.98
2019-05-03T00:37:41.933Z,8.99
2019-05-03T00:40:13.237Z,8.99
2019-05-03T00:42:43.968Z,8.98
2019-05-03T00:45:13.468Z,8.98
2019-05-03T00:47:42.608Z,8.98
2019-05-03T00:50:12.096Z,8.97
2019-05-03T00:52:44.188Z,8.97
2019-05-03T00:55:18.729Z,8.98
2019-05-03T00:58:18.523Z,8.95
2019-05-03T01:00:47.893Z,8.95
2019-05-03T01:03:21.853Z,8.93
2019-05-03T01:05:52.933Z,8.91
2019-05-03T01:08:22.655Z,8.88
2019-05-03T01:10:51.835Z,8.81
2019-05-03T01:13:21.906Z,8.79
2019-05-03T01:16:02.804Z,8.77
2019-05-03T01:18:33.913Z,8.74
2019-05-03T01:21:03.051Z,8.68
2019-05-03T01:23:32.659Z,8.61
2019-05-03T01:26:02.481Z,8.58
2019-05-03T01:28:32.306Z,8.54
2019-05-03T01:31:02.529Z,8.50
2019-05-03T01:33:32.303Z,8.46
2019-05-03T01:36:51.756Z,8.38
2019-05-03T01:39:22.207Z,8.31
2019-05-03T01:41:52.222Z,8.25
2019-05-03T01:44:22.022Z,8.23
2019-05-03T01:46:52.378Z,8.21
2019-05-03T01:49:23.137Z,8.20
2019-05-03T01:51:53.944Z,8.16
2019-05-03T01:54:57.072Z,8.14
2019-05-03T01:57:26.496Z,8.06
2019-05-03T01:59:55.666Z,7.92
2019-05-03T02:02:26.502Z,7.87
2019-05-03T02:05:15.620Z,7.79
2019-05-03T02:07:44.886Z,7.77
2019-05-03T02:10:14.117Z,7.70
2019-05-03T02:12:43.266Z,7.66
2019-05-03T02:15:12.578Z,7.63
2019-05-03T02:17:42.672Z,7.62
2019-05-03T02:20:12.608Z,7.59
2019-05-03T02:22:42.823Z,7.55
2019-05-03T02:25:12.545Z,7.50
2019-05-03T02:27:42.253Z,7.48
2019-05-03T02:30:13.943Z,7.46
2019-05-03T02:32:44.050Z,7.45
2019-05-03T02:35:14.038Z,7.41
2019-05-03T02:37:45.254Z,7.37
2019-05-03T02:40:14.795Z,7.32
2019-05-03T02:42:46.372Z,7.29
2019-05-03T02:45:25.734Z,7.23
2019-05-03T02:47:55.997Z,7.18
2019-05-03T02:50:26.010Z,7.12
2019-05-03T02:52:55.440Z,7.08
2019-05-03T02:55:26.083Z,7.06
2019-05-03T02:57:56.386Z,7.04
2019-05-03T03:00:51.428Z,6.98
2019-05-03T03:03:20.594Z,6.91
2019-05-03T03:05:50.301Z,6.83
2019-05-03T03:08:21.365Z,6.81
2019-05-03T03:10:51.798Z,6.75
2019-05-03T03:13:25.174Z,6.69
2019-05-03T03:15:55.309Z,6.64
2019-05-03T03:18:25.496Z,6.59
2019-05-03T03:20:56.372Z,6.50
2019-05-03T03:23:27.096Z,6.46
2019-05-03T03:25:58.195Z,6.46
2019-05-03T03:28:28.539Z,6.46
2019-05-03T03:31:17.907Z,6.48
2019-05-03T03:33:47.711Z,6.44
2019-05-03T03:36:53.274Z,6.39
2019-05-03T03:39:19.627Z,6.37
2019-05-03T03:41:48.670Z,6.38
2019-05-03T03:44:21.131Z,6.38
2019-05-03T03:47:05.105Z,6.38
2019-05-03T03:49:46.345Z,6.39
2019-05-03T03:52:17.988Z,6.39
2019-05-03T03:54:56.488Z,6.45
2019-05-03T03:57:27.193Z,6.50
2019-05-03T03:59:56.564Z,6.54
2019-05-03T04:02:27.531Z,6.55
2019-05-03T04:07:42.203Z,6.57
2019-05-03T04:10:37.333Z,6.59
2019-05-03T04:16:49.099Z,6.59
2019-05-03T04:22:45.912Z,6.57
2019-05-03T04:25:16.639Z,6.50
2019-05-03T04:28:01.079Z,6.46
2019-05-03T04:30:46.034Z,6.43
2019-05-03T04:34:16.243Z,6.43
2019-05-03T04:36:32.056Z,6.46
2019-05-03T04:39:01.419Z,6.43
2019-05-03T04:43:10.210Z,6.43
2019-05-03T04:44:22.189Z,6.40
2019-05-03T04:46:54.869Z,6.33
2019-05-03T04:49:25.839Z,6.30
2019-05-03T04:51:56.043Z,6.30
2019-05-03T04:54:26.862Z,6.33
2019-05-03T04:57:06.545Z,6.38
2019-05-03T04:59:35.803Z,6.42
2019-05-03T05:02:06.157Z,6.48
2019-05-03T05:04:55.304Z,6.51
2019-05-03T05:07:25.896Z,6.52
2019-05-03T05:09:59.000Z,6.51
2019-05-03T05:12:35.680Z,6.52
2019-05-03T05:15:06.426Z,6.54
2019-05-03T05:17:48.693Z,6.54
2019-05-03T05:20:35.959Z,6.56
2019-05-03T05:23:11.460Z,6.60
2019-05-03T05:25:48.212Z,6.59
2019-05-03T05:28:41.750Z,6.61
2019-05-03T05:31:10.899Z,6.60
2019-05-03T05:33:40.012Z,6.58
2019-05-03T05:36:09.132Z,6.63
2019-05-03T05:38:38.272Z,6.70
2019-05-03T05:41:07.782Z,6.79
2019-05-03T05:43:39.329Z,6.88
2019-05-03T05:46:08.478Z,6.94
2019-05-03T05:48:56.928Z,6.99
2019-05-03T05:51:30.926Z,7.03
2019-05-03T05:54:05.246Z,7.13
2019-05-03T06:00:02.093Z,7.12
2019-05-03T06:02:36.102Z,7.17
2019-05-03T06:05:21.724Z,7.25
2019-05-03T06:08:16.347Z,7.33
2019-05-03T06:11:08.709Z,7.36
2019-05-03T06:13:52.013Z,7.39
2019-05-03T06:16:39.350Z,7.48
2019-05-03T06:19:26.933Z,7.59
2019-05-03T06:22:31.054Z,7.70
2019-05-03T06:25:26.551Z,7.78
2019-05-03T06:27:57.681Z,7.82
2019-05-03T06:30:28.506Z,7.87
2019-05-03T06:33:10.775Z,7.97
2019-05-03T06:35:35.468Z,8.05
2019-05-03T06:38:05.235Z,8.14
2019-05-03T06:40:44.828Z,8.22
2019-05-03T06:43:12.989Z,8.28
2019-05-03T06:48:41.736Z,8.39
2019-05-03T06:51:19.265Z,8.46
2019-05-03T06:56:29.207Z,8.59
2019-05-03T06:59:01.896Z,8.66
2019-05-03T07:01:35.716Z,8.74
2019-05-03T07:04:21.141Z,8.81
2019-05-03T07:07:18.538Z,8.93
2019-05-03T07:09:55.133Z,9.03
2019-05-03T07:12:25.087Z,9.14
2019-05-03T07:14:54.853Z,9.25
2019-05-03T07:17:26.062Z,9.35
2019-05-03T07:19:55.250Z,9.43
2019-05-03T07:22:28.933Z,9.50
2019-05-03T07:24:58.053Z,9.52
2019-05-03T07:27:32.318Z,9.58
2019-05-03T07:30:08.900Z,9.63
2019-05-03T07:32:45.531Z,9.71
2019-05-03T07:35:30.247Z,9.85
2019-05-03T07:37:59.379Z,10.00
2019-05-03T07:40:40.876Z,10.22
2019-05-03T07:43:10.074Z,10.50
2019-05-03T07:45:39.212Z,10.72
2019-05-03T07:48:12.453Z,10.80
2019-05-03T07:50:54.631Z,10.88
2019-05-03T07:53:29.108Z,11.01
2019-05-03T07:56:16.003Z,11.18
2019-05-03T07:59:00.070Z,11.12
2019-05-03T08:01:38.712Z,10.93
2019-05-03T08:04:07.115Z,10.75
2019-05-03T08:06:39.663Z,10.53
2019-05-03T08:09:15.304Z,10.24
2019-05-03T08:11:56.650Z,9.87
2019-05-03T08:14:28.270Z,9.54
2019-05-03T08:17:06.711Z,9.30
2019-05-03T08:22:36.594Z,9.24
2019-05-03T08:27:37.300Z,9.34
2019-05-03T08:30:09.549Z,9.48
2019-05-03T08:32:46.077Z,9.88
2019-05-03T08:35:29.085Z,10.13
2019-05-03T08:38:07.018Z,10.48
2019-05-03T08:40:41.354Z,11.83
2019-05-03T08:43:28.442Z,13.13
2019-05-03T08:46:07.797Z,14.83
2019-05-03T08:48:45.470Z,15.66
2019-05-03T08:51:16.718Z,14.88
2019-05-03T08:53:52.730Z,14.29
2019-05-03T08:56:35.538Z,13.79
2019-05-03T08:59:06.941Z,13.80
2019-05-03T09:01:43.010Z,13.88
2019-05-03T09:04:15.400Z,13.76
2019-05-03T09:06:48.272Z,13.99
2019-05-03T09:09:25.431Z,13.87
2019-05-03T09:11:56.974Z,14.20
2019-05-03T09:14:41.424Z,13.50
2019-05-03T09:17:02.142Z,12.98
2019-05-03T09:19:35.911Z,12.60
2019-05-03T09:22:11.506Z,12.29
2019-05-03T09:24:45.946Z,12.00
2019-05-03T09:27:17.237Z,11.85
2019-05-03T09:29:47.090Z,11.72
2019-05-03T09:32:16.758Z,11.66
2019-05-03T09:34:51.199Z,11.55
2019-05-03T09:37:21.241Z,11.76
2019-05-03T09:39:55.167Z,12.46
2019-05-03T09:42:26.137Z,12.45
2019-05-03T09:44:55.587Z,12.65
2019-05-03T09:47:28.518Z,12.92
2019-05-03T09:50:04.804Z,12.72
2019-05-03T09:52:46.904Z,12.73
2019-05-03T09:55:18.220Z,12.54
2019-05-03T09:57:47.912Z,12.59
2019-05-03T10:00:21.156Z,12.48
2019-05-03T10:02:55.061Z,13.09
2019-05-03T10:05:29.363Z,13.31
2019-05-03T10:08:05.392Z,13.71
2019-05-03T10:10:52.705Z,13.38
2019-05-03T10:13:35.407Z,13.05
2019-05-03T10:16:24.785Z,12.75
2019-05-03T10:18:55.962Z,12.66
2019-05-03T10:21:30.477Z,12.63
2019-05-03T10:23:59.607Z,12.65
2019-05-03T10:26:35.636Z,12.97
2019-05-03T10:29:05.453Z,13.05
2019-05-03T10:31:45.372Z,12.93
2019-05-03T10:34:16.268Z,12.73
2019-05-03T10:36:51.642Z,12.60
2019-05-03T10:39:26.122Z,12.48
2019-05-03T10:41:55.447Z,12.37
2019-05-03T10:44:32.295Z,12.45
2019-05-03T10:47:06.058Z,12.60
2019-05-03T10:49:39.404Z,12.93
2019-05-03T10:52:14.904Z,12.97
2019-05-03T10:54:48.277Z,13.02
2019-05-03T10:57:24.879Z,12.99
2019-05-03T10:59:55.662Z,13.15
2019-05-03T11:02:28.386Z,13.27
2019-05-03T11:04:58.297Z,13.02
2019-05-03T11:07:27.865Z,12.80
2019-05-03T11:09:58.345Z,13.04
2019-05-03T11:12:30.479Z,13.40
2019-05-03T11:15:02.606Z,13.21
2019-05-03T11:17:35.250Z,12.97
2019-05-03T11:20:09.096Z,12.83
2019-05-03T11:22:39.804Z,12.66
2019-05-03T11:25:17.076Z,12.51
2019-05-03T11:27:48.175Z,12.33
2019-05-03T11:30:17.953Z,12.15
2019-05-03T11:32:55.629Z,12.13
2019-05-03T11:35:36.293Z,12.09
2019-05-03T11:38:07.093Z,12.32
2019-05-03T11:40:37.066Z,12.65
2019-05-03T11:43:15.116Z,12.74
2019-05-03T11:45:44.788Z,13.03
2019-05-03T11:48:14.835Z,13.28
2019-05-03T11:50:54.530Z,13.10
2019-05-03T11:53:25.152Z,12.95
2019-05-03T11:55:57.538Z,12.72
2019-05-03T11:58:30.919Z,12.47
2019-05-03T12:01:16.392Z,12.31
2019-05-03T12:03:50.839Z,12.17
2019-05-03T12:06:24.918Z,12.42
2019-05-03T12:08:57.112Z,12.34
2019-05-03T12:11:30.402Z,12.37
2019-05-03T12:17:18.404Z,12.70
2019-05-03T12:19:38.831Z,12.65
2019-05-03T12:22:11.172Z,12.65
2019-05-03T12:24:42.701Z,12.64
2019-05-03T12:27:15.035Z,12.62
2019-05-03T12:29:52.437Z,12.65
2019-05-03T12:32:26.504Z,13.08
2019-05-03T12:34:55.619Z,13.51
2019-05-03T12:37:27.991Z,13.84
2019-05-03T12:39:57.301Z,13.93
2019-05-03T12:42:26.389Z,14.07
2019-05-03T12:44:56.969Z,14.34
2019-05-03T12:47:28.908Z,14.59
2019-05-03T12:49:58.202Z,14.27
2019-05-03T12:52:27.955Z,13.79
2019-05-03T12:54:59.480Z,13.50
2019-05-03T12:57:28.647Z,13.20
2019-05-03T13:00:06.350Z,13.04
2019-05-03T13:05:15.775Z,13.30
2019-05-03T13:07:57.559Z,13.68
2019-05-03T13:10:25.992Z,13.99
2019-05-03T13:12:58.760Z,14.02
2019-05-03T13:15:35.163Z,13.98
2019-05-03T13:18:04.977Z,13.77
2019-05-03T13:20:40.535Z,13.54
2019-05-03T13:23:12.655Z,13.29
2019-05-03T13:25:44.844Z,13.10
2019-05-03T13:28:15.353Z,12.81
2019-05-03T13:30:45.332Z,12.54
2019-05-03T13:33:15.318Z,12.31
2019-05-03T13:35:48.616Z,12.17
2019-05-03T13:38:25.055Z,12.14
2019-05-03T13:40:54.393Z,12.12
2019-05-03T13:43:24.067Z,12.13
2019-05-03T13:45:57.541Z,12.14
2019-05-03T13:48:26.769Z,12.16
2019-05-03T13:50:58.314Z,12.13
2019-05-03T13:53:29.824Z,12.13
2019-05-03T13:56:02.027Z,12.13
2019-05-03T13:58:31.183Z,12.16
2019-05-03T14:01:00.334Z,12.19
2019-05-03T14:03:29.945Z,12.25
2019-05-03T14:06:08.622Z,12.45
2019-05-03T14:09:05.223Z,12.51
2019-05-03T14:17:38.459Z,12.43
2019-05-03T14:20:37.510Z,12.40
2019-05-03T14:23:40.435Z,12.40
2019-05-03T14:26:15.331Z,12.47
2019-05-03T14:28:45.215Z,12.59
2019-05-03T14:31:18.277Z,12.56
2019-05-03T14:33:56.032Z,12.68
2019-05-03T14:36:30.390Z,12.59
2019-05-03T14:39:00.102Z,12.85
2019-05-03T14:41:35.161Z,13.22
2019-05-03T14:44:08.005Z,13.23
2019-05-03T14:46:47.212Z,13.19
2019-05-03T14:49:20.632Z,13.09
2019-05-03T14:52:00.716Z,13.01
2019-05-03T14:54:36.257Z,12.83
2019-05-03T14:57:07.832Z,12.63
2019-05-03T14:59:58.002Z,12.40
2019-05-03T15:02:42.555Z,12.18
2019-05-03T15:05:05.596Z,11.96
2019-05-03T15:07:35.197Z,11.82
2019-05-03T15:10:07.541Z,11.73
2019-05-03T15:12:38.852Z,11.59
2019-05-03T15:15:08.902Z,11.61
2019-05-03T15:17:40.521Z,11.73
2019-05-03T15:20:11.655Z,11.77
2019-05-03T15:22:49.101Z,11.77
2019-05-03T15:25:25.054Z,11.61
2019-05-03T15:28:04.938Z,11.56
2019-05-03T15:30:35.286Z,11.46
2019-05-03T15:33:15.019Z,11.39
2019-05-03T15:35:47.785Z,11.39
2019-05-03T15:38:22.078Z,11.36
2019-05-03T15:40:51.177Z,11.26
2019-05-03T15:43:39.808Z,11.13
2019-05-03T15:46:31.097Z,11.10
2019-05-03T15:49:18.053Z,11.07
2019-05-03T15:51:56.162Z,11.01
2019-05-03T15:54:27.665Z,11.05
2019-05-03T15:57:05.600Z,11.08
2019-05-03T15:59:39.263Z,10.99
2019-05-03T16:02:08.024Z,10.94
2019-05-03T16:04:58.825Z,10.92
2019-05-03T16:07:35.399Z,10.88
2019-05-03T16:10:04.697Z,10.86
2019-05-03T16:12:37.104Z,10.94
2019-05-03T16:15:09.261Z,10.99
2019-05-03T16:17:38.336Z,11.04
2019-05-03T16:20:07.743Z,10.96
2019-05-03T16:22:47.108Z,10.94
2019-05-03T16:25:17.442Z,10.86
2019-05-03T16:27:52.410Z,10.77
2019-05-03T16:30:30.109Z,10.66
2019-05-03T16:33:04.776Z,10.50
2019-05-03T16:35:34.948Z,10.36
2019-05-03T16:38:09.428Z,10.24
2019-05-03T16:40:45.102Z,10.10
2019-05-03T16:43:25.444Z,10.00
2019-05-03T16:45:55.244Z,9.85
2019-05-03T16:48:30.273Z,9.68
2019-05-03T16:51:05.914Z,9.49
2019-05-03T16:53:35.000Z,9.36
2019-05-03T16:56:17.030Z,9.34
2019-05-03T16:58:59.225Z,9.26
2019-05-03T17:01:35.911Z,9.25
2019-05-03T17:04:15.567Z,9.26
2019-05-03T17:06:57.410Z,9.20
2019-05-03T17:09:38.925Z,9.19
2019-05-03T17:12:25.764Z,9.12
2019-05-03T17:14:57.033Z,9.09
2019-05-03T17:17:30.509Z,9.07
2019-05-03T17:20:07.441Z,9.05
2019-05-03T17:22:57.588Z,9.03
2019-05-03T17:25:47.899Z,9.03
2019-05-03T17:28:18.498Z,9.03
2019-05-03T17:30:47.569Z,9.08
2019-05-03T17:33:31.991Z,9.05
2019-05-03T17:36:24.896Z,9.04
2019-05-03T17:39:01.213Z,9.03
2019-05-03T17:42:09.807Z,9.03
2019-05-03T17:48:00.424Z,8.99
2019-05-03T17:50:39.263Z,8.97
2019-05-03T17:53:32.051Z,8.94
2019-05-03T17:58:57.774Z,8.85
2019-05-03T18:01:40.030Z,8.80
2019-05-03T18:04:32.041Z,8.79
2019-05-03T18:07:14.941Z,8.77
2019-05-03T18:09:57.722Z,8.74
2019-05-03T18:12:35.073Z,8.74
2019-05-03T18:15:10.972Z,8.73
2019-05-03T18:17:45.044Z,8.74
2019-05-03T18:20:20.199Z,8.74
2019-05-03T18:22:54.635Z,8.66
2019-05-03T18:25:28.499Z,8.50
2019-05-03T18:28:25.971Z,8.39
2019-05-03T18:30:37.658Z,8.25
2019-05-03T18:33:18.151Z,8.18
2019-05-03T18:35:55.028Z,8.17
2019-05-03T18:38:35.195Z,8.11
2019-05-03T18:44:24.659Z,8.04
2019-05-03T18:50:09.766Z,7.93
2019-05-03T18:52:40.099Z,7.91
2019-05-03T18:55:22.734Z,7.90
2019-05-03T18:57:54.749Z,7.90
2019-05-03T19:00:28.486Z,7.91
2019-05-03T19:03:05.445Z,7.94
2019-05-03T19:05:47.428Z,8.00
2019-05-03T19:08:30.886Z,8.06
2019-05-03T19:11:04.457Z,8.16
2019-05-03T19:13:56.101Z,8.21
2019-05-03T19:16:35.031Z,8.23
2019-05-03T19:19:12.872Z,8.19
2019-05-03T19:21:52.914Z,8.16
2019-05-03T19:24:38.751Z,8.15
2019-05-03T19:27:08.688Z,8.14
2019-05-03T19:29:55.235Z,8.10
2019-05-03T19:32:28.172Z,8.12
2019-05-03T19:35:07.416Z,8.15
2019-05-03T19:37:46.313Z,8.17
2019-05-03T19:40:36.537Z,8.19
2019-05-03T19:43:05.770Z,8.15
2019-05-03T19:45:40.836Z,8.10
2019-05-03T19:48:19.329Z,8.02
2019-05-03T19:50:48.515Z,7.99
2019-05-03T19:53:35.966Z,7.94
2019-05-03T19:56:08.058Z,7.94
2019-05-03T19:58:46.770Z,7.88
2019-05-03T20:01:26.735Z,7.82
2019-05-03T20:03:57.483Z,7.77
2019-05-03T20:06:28.243Z,7.75
2019-05-03T20:09:00.088Z,7.74
2019-05-03T20:11:29.188Z,7.78
2019-05-03T20:14:04.606Z,7.79
2019-05-03T20:16:51.202Z,7.77
2019-05-03T20:19:21.297Z,7.79
2019-05-03T20:21:50.594Z,7.80
2019-05-03T20:24:19.719Z,7.80
2019-05-03T20:26:49.292Z,7.80
2019-05-03T20:29:34.531Z,7.84
2019-05-03T20:32:05.763Z,7.80
2019-05-03T20:34:38.531Z,7.82
2019-05-03T20:37:07.745Z,7.81
2019-05-03T20:39:38.181Z,7.76
2019-05-03T20:42:07.236Z,7.76
2019-05-03T20:44:38.050Z,7.72
2019-05-03T20:47:17.789Z,7.70
2019-05-03T20:49:54.058Z,7.71
2019-05-03T20:52:35.222Z,7.69
2019-05-03T20:57:54.958Z,7.51
2019-05-03T21:00:39.127Z,7.44
2019-05-03T21:03:15.188Z,7.40
2019-05-03T21:08:49.766Z,7.24
2019-05-03T21:11:15.315Z,7.26
2019-05-03T21:13:42.537Z,7.25
2019-05-03T21:20:28.166Z,7.17
2019-05-03T21:25:15.379Z,7.20
2019-05-03T21:26:02.635Z,7.20
2019-05-03T21:28:10.953Z,7.18
2019-05-03T21:30:40.262Z,7.13
2019-05-03T21:33:09.421Z,7.11
2019-05-03T21:35:47.762Z,7.14
2019-05-03T21:38:35.334Z,7.18
2019-05-03T21:40:57.190Z,7.16
2019-05-03T21:43:28.094Z,7.16
2019-05-03T21:49:46.845Z,7.13
2019-05-03T21:55:35.293Z,7.04
2019-05-03T22:04:11.154Z,7.10
2019-05-03T22:06:49.026Z,7.11
2019-05-03T22:09:24.488Z,7.08
2019-05-03T22:12:29.381Z,7.06
2019-05-03T22:14:55.333Z,7.02
2019-05-03T22:17:42.464Z,6.99
2019-05-03T22:23:08.991Z,7.07
2019-05-03T22:25:40.046Z,7.09
2019-05-03T22:28:35.133Z,7.14
2019-05-03T22:34:04.583Z,7.17
2019-05-03T22:36:37.871Z,7.17
2019-05-03T22:39:41.233Z,7.14
2019-05-03T22:42:20.581Z,7.12
2019-05-03T22:45:19.726Z,7.09
2019-05-03T22:47:55.028Z,7.06
2019-05-03T22:50:45.046Z,7.02
2019-05-03T22:53:28.275Z,7.00
2019-05-03T22:56:14.434Z,7.02
2019-05-03T22:58:54.768Z,6.99
2019-05-03T23:01:25.568Z,6.96
2019-05-03T23:04:29.017Z,6.94
2019-05-03T23:06:58.634Z,6.93
2019-05-03T23:09:28.243Z,6.94
2019-05-03T23:12:11.523Z,6.95
2019-05-03T23:17:39.161Z,6.94
2019-05-03T23:20:17.612Z,6.92
2019-05-03T23:22:47.013Z,6.91
2019-05-03T23:25:20.234Z,6.87
2019-05-03T23:27:49.388Z,6.82
2019-05-03T23:30:19.055Z,6.80
2019-05-03T23:32:48.256Z,6.77
2019-05-03T23:35:18.851Z,6.75
2019-05-03T23:37:48.199Z,6.72
2019-05-03T23:40:17.303Z,6.75
2019-05-03T23:42:46.425Z,6.73
2019-05-03T23:45:15.568Z,6.71
2019-05-03T23:47:46.307Z,6.65
2019-05-03T23:50:17.199Z,6.62
2019-05-03T23:52:46.341Z,6.62
2019-05-03T23:55:20.035Z,6.64
2019-05-03T23:57:49.607Z,6.63
